Sabinal — WDC2725 — position and weather

sailwx.info

Track history (hours):
 
Tides and Currents Weather Stations Pressure Air Temp Water Temp Dewpoint Dewpoint Depression Visibility Wind Speed Wind Dir Waves Ship Positions

Sabinal

Owner: Kirby Inland Marine, LP, Houston, TX. More information available from US FCC via Universal Licensing System and Coast Guard Vessel Documentation Center.

Last reported at 2018-Jun-23 07:09 UTC. Time now 2018-Jun-24 09:11 UTC.
Position N 29°46' W 095°07'.

Length 111 m; draft 2.9 m.

Type: . MMSI: 366996840.

Date/timePositionNaut miles runAvg speedWind from/ knotsBaromVisibWave heightAir tempDewpointWater temp
2018-Jun-23 07:09N 29°46' W 095°07'0 0.0
2018-Jun-23 06:59N 29°46' W 095°07'0 0.0
2018-Jun-23 06:28N 29°46' W 095°07'0 0.0
2018-Jun-23 05:58N 29°46' W 095°07'0 0.0
2018-Jun-23 05:15N 29°46' W 095°07'0 0.0
2018-Jun-23 04:44N 29°46' W 095°07'0 0.0
2018-Jun-23 03:48N 29°46' W 095°07'2 0.1
2018-Jun-22 08:01N 29°44' W 095°08'1 6.3
2018-Jun-22 07:54N 29°44' W 095°09'2 5.7
2018-Jun-22 07:29N 29°45' W 095°12'2 3.5
2018-Jun-22 06:49N 29°44' W 095°14'0 0.0
2018-Jun-22 06:30N 29°44' W 095°14'0 0.0
2018-Jun-22 05:59N 29°44' W 095°14'0 0.0
2018-Jun-22 05:30N 29°44' W 095°14'1 1.4
2018-Jun-22 04:58N 29°43' W 095°13'2 5.1
2018-Jun-22 04:30N 29°45' W 095°11'3 5.3
2018-Jun-22 03:58N 29°44' W 095°08'2 4.4
2018-Jun-22 03:29N 29°45' W 095°06'0 0.1
2018-Jun-22 02:51N 29°45' W 095°06'2 3.5
2018-Jun-22 02:13N 29°47' W 095°04'  
2018-Jun-19 20:04N 29°42' W 095°01'1 5.6
2018-Jun-19 19:54N 29°42' W 095°00'1 2.7
2018-Jun-19 19:30N 29°41' W 094°60'1 0.0
2018-Jun-19 04:49N 29°41' W 095°00'0 0.7
2018-Jun-19 04:29N 29°41' W 095°00'2 0.0
2018-Jun-17 16:11N 29°42' W 095°01'2 7.2
2018-Jun-17 15:57N 29°42' W 094°59'3 7.1
2018-Jun-17 15:30N 29°39' W 094°58'5 6.8
2018-Jun-17 14:50N 29°35' W 094°56'15 1.1
2018-Jun-17 01:02N 29°21' W 094°47'0 6.5
2018-Jun-17 01:00N 29°21' W 094°47'19 5.9
2018-Jun-16 21:47N 29°38' W 094°58'2 6.2
2018-Jun-16 21:29N 29°40' W 094°58'  
Track history (hours):
 
Tides and Currents Weather Stations Pressure Air Temp Water Temp Dewpoint Dewpoint Depression Visibility Wind Speed Wind Dir Waves Ship Positions

Sabinal

Owner: Kirby Inland Marine, LP, Houston, TX. More information available from US FCC via Universal Licensing System and Coast Guard Vessel Documentation Center.

Last reported at 2018-Jun-23 07:09 UTC. Time now 2018-Jun-24 09:11 UTC.
Position N 29°46' W 095°07'.

Length 111 m; draft 2.9 m.

Type: . MMSI: 366996840.

Date/timePositionNaut miles runAvg speedWind from/ knotsBaromVisibWave heightAir tempDewpointWater temp
2018-Jun-23 07:09N 29°46' W 095°07'0 0.0
2018-Jun-23 06:59N 29°46' W 095°07'0 0.0
2018-Jun-23 06:28N 29°46' W 095°07'0 0.0
2018-Jun-23 05:58N 29°46' W 095°07'0 0.0
2018-Jun-23 05:15N 29°46' W 095°07'0 0.0
2018-Jun-23 04:44N 29°46' W 095°07'0 0.0
2018-Jun-23 03:48N 29°46' W 095°07'2 0.1
2018-Jun-22 08:01N 29°44' W 095°08'1 6.3
2018-Jun-22 07:54N 29°44' W 095°09'2 5.7
2018-Jun-22 07:29N 29°45' W 095°12'2 3.5
2018-Jun-22 06:49N 29°44' W 095°14'0 0.0
2018-Jun-22 06:30N 29°44' W 095°14'0 0.0
2018-Jun-22 05:59N 29°44' W 095°14'0 0.0
2018-Jun-22 05:30N 29°44' W 095°14'1 1.4
2018-Jun-22 04:58N 29°43' W 095°13'2 5.1
2018-Jun-22 04:30N 29°45' W 095°11'3 5.3
2018-Jun-22 03:58N 29°44' W 095°08'2 4.4
2018-Jun-22 03:29N 29°45' W 095°06'0 0.1
2018-Jun-22 02:51N 29°45' W 095°06'2 3.5
2018-Jun-22 02:13N 29°47' W 095°04'  
2018-Jun-19 20:04N 29°42' W 095°01'1 5.6
2018-Jun-19 19:54N 29°42' W 095°00'1 2.7
2018-Jun-19 19:30N 29°41' W 094°60'1 0.0
2018-Jun-19 04:49N 29°41' W 095°00'0 0.7
2018-Jun-19 04:29N 29°41' W 095°00'2 0.0
2018-Jun-17 16:11N 29°42' W 095°01'2 7.2
2018-Jun-17 15:57N 29°42' W 094°59'3 7.1
2018-Jun-17 15:30N 29°39' W 094°58'5 6.8
2018-Jun-17 14:50N 29°35' W 094°56'15 1.1
2018-Jun-17 01:02N 29°21' W 094°47'0 6.5
2018-Jun-17 01:00N 29°21' W 094°47'19 5.9
2018-Jun-16 21:47N 29°38' W 094°58'2 6.2
2018-Jun-16 21:29N 29°40' W 094°58'  

Dump ship's entire track history